sensor_id;sensor_type;location;lat;lon;timestamp;P1;durP1;ratioP1;P2;durP2;ratioP2
31537;SDS011;18147;51.952;6.146;2023-09-30T00:00:51;29.45;;;8.15;;
31537;SDS011;18147;51.952;6.146;2023-09-30T00:03:18;28.13;;;8.25;;
31537;SDS011;18147;51.952;6.146;2023-09-30T00:05:43;32.38;;;10.27;;
31537;SDS011;18147;51.952;6.146;2023-09-30T00:08:08;23.60;;;9.32;;
31537;SDS011;18147;51.952;6.146;2023-09-30T00:10:34;27.55;;;9.23;;
31537;SDS011;18147;51.952;6.146;2023-09-30T00:12:59;22.58;;;7.88;;
31537;SDS011;18147;51.952;6.146;2023-09-30T00:15:25;19.00;;;8.95;;
31537;SDS011;18147;51.952;6.146;2023-09-30T00:17:50;23.65;;;9.73;;
31537;SDS011;18147;51.952;6.146;2023-09-30T00:20:16;25.58;;;9.98;;
31537;SDS011;18147;51.952;6.146;2023-09-30T00:22:42;24.52;;;9.82;;
31537;SDS011;18147;51.952;6.146;2023-09-30T00:25:08;21.65;;;9.38;;
31537;SDS011;18147;51.952;6.146;2023-09-30T00:27:33;20.83;;;8.98;;
31537;SDS011;18147;51.952;6.146;2023-09-30T00:29:59;17.85;;;6.85;;
31537;SDS011;18147;51.952;6.146;2023-09-30T00:32:24;19.58;;;8.07;;
31537;SDS011;18147;51.952;6.146;2023-09-30T00:34:50;20.60;;;9.30;;
31537;SDS011;18147;51.952;6.146;2023-09-30T00:37:17;24.75;;;9.50;;
31537;SDS011;18147;51.952;6.146;2023-09-30T00:39:43;23.90;;;9.23;;
31537;SDS011;18147;51.952;6.146;2023-09-30T00:42:10;21.55;;;9.60;;
31537;SDS011;18147;51.952;6.146;2023-09-30T00:44:35;30.85;;;10.93;;
31537;SDS011;18147;51.952;6.146;2023-09-30T00:47:01;26.23;;;9.45;;
31537;SDS011;18147;51.952;6.146;2023-09-30T00:49:28;19.75;;;8.38;;
31537;SDS011;18147;51.952;6.146;2023-09-30T00:51:54;19.05;;;9.23;;
31537;SDS011;18147;51.952;6.146;2023-09-30T00:54:21;20.80;;;9.05;;
31537;SDS011;18147;51.952;6.146;2023-09-30T00:56:50;21.85;;;8.95;;
31537;SDS011;18147;51.952;6.146;2023-09-30T00:59:17;17.17;;;9.45;;
31537;SDS011;18147;51.952;6.146;2023-09-30T01:01:45;24.25;;;9.82;;
31537;SDS011;18147;51.952;6.146;2023-09-30T01:04:11;20.38;;;9.50;;
31537;SDS011;18147;51.952;6.146;2023-09-30T01:06:37;17.17;;;8.77;;
31537;SDS011;18147;51.952;6.146;2023-09-30T01:09:03;23.42;;;9.85;;
31537;SDS011;18147;51.952;6.146;2023-09-30T01:11:29;21.40;;;9.13;;
31537;SDS011;18147;51.952;6.146;2023-09-30T01:13:54;29.55;;;11.38;;
31537;SDS011;18147;51.952;6.146;2023-09-30T01:16:20;27.95;;;10.88;;
31537;SDS011;18147;51.952;6.146;2023-09-30T01:18:46;23.70;;;9.38;;
31537;SDS011;18147;51.952;6.146;2023-09-30T01:21:12;30.88;;;11.27;;
31537;SDS011;18147;51.952;6.146;2023-09-30T01:23:40;32.72;;;10.73;;
31537;SDS011;18147;51.952;6.146;2023-09-30T01:26:07;28.48;;;11.93;;
31537;SDS011;18147;51.952;6.146;2023-09-30T01:28:34;31.58;;;11.57;;
31537;SDS011;18147;51.952;6.146;2023-09-30T01:31:00;26.77;;;11.77;;
31537;SDS011;18147;51.952;6.146;2023-09-30T01:33:27;28.77;;;11.07;;
31537;SDS011;18147;51.952;6.146;2023-09-30T01:35:53;25.33;;;12.82;;
31537;SDS011;18147;51.952;6.146;2023-09-30T01:38:19;39.35;;;15.05;;
31537;SDS011;18147;51.952;6.146;2023-09-30T01:40:46;27.50;;;13.82;;
31537;SDS011;18147;51.952;6.146;2023-09-30T01:43:15;27.73;;;13.63;;
31537;SDS011;18147;51.952;6.146;2023-09-30T01:45:41;28.17;;;12.57;;
31537;SDS011;18147;51.952;6.146;2023-09-30T01:48:07;32.55;;;15.93;;
31537;SDS011;18147;51.952;6.146;2023-09-30T01:50:39;33.13;;;15.40;;
31537;SDS011;18147;51.952;6.146;2023-09-30T01:53:07;32.72;;;15.63;;
31537;SDS011;18147;51.952;6.146;2023-09-30T01:55:34;27.60;;;13.32;;
31537;SDS011;18147;51.952;6.146;2023-09-30T01:58:01;26.05;;;12.77;;
31537;SDS011;18147;51.952;6.146;2023-09-30T02:00:26;30.30;;;14.18;;
31537;SDS011;18147;51.952;6.146;2023-09-30T02:02:53;27.58;;;12.48;;
31537;SDS011;18147;51.952;6.146;2023-09-30T02:05:21;30.08;;;12.18;;
31537;SDS011;18147;51.952;6.146;2023-09-30T02:07:47;20.38;;;9.90;;
31537;SDS011;18147;51.952;6.146;2023-09-30T02:10:14;19.25;;;9.98;;
31537;SDS011;18147;51.952;6.146;2023-09-30T02:12:39;22.85;;;12.25;;
31537;SDS011;18147;51.952;6.146;2023-09-30T02:15:05;27.80;;;13.45;;
31537;SDS011;18147;51.952;6.146;2023-09-30T02:17:32;25.38;;;11.35;;
31537;SDS011;18147;51.952;6.146;2023-09-30T02:19:57;23.95;;;12.13;;
31537;SDS011;18147;51.952;6.146;2023-09-30T02:22:23;30.40;;;13.25;;
31537;SDS011;18147;51.952;6.146;2023-09-30T02:24:49;23.15;;;12.73;;
31537;SDS011;18147;51.952;6.146;2023-09-30T02:27:15;23.67;;;11.57;;
31537;SDS011;18147;51.952;6.146;2023-09-30T02:29:41;26.08;;;11.65;;
31537;SDS011;18147;51.952;6.146;2023-09-30T02:32:07;26.27;;;12.73;;
31537;SDS011;18147;51.952;6.146;2023-09-30T02:34:32;27.20;;;14.93;;
31537;SDS011;18147;51.952;6.146;2023-09-30T02:36:58;26.20;;;14.15;;
31537;SDS011;18147;51.952;6.146;2023-09-30T02:39:25;29.42;;;13.68;;
31537;SDS011;18147;51.952;6.146;2023-09-30T02:41:51;22.13;;;14.23;;
31537;SDS011;18147;51.952;6.146;2023-09-30T02:44:17;23.65;;;13.38;;
31537;SDS011;18147;51.952;6.146;2023-09-30T02:46:43;24.10;;;12.25;;
31537;SDS011;18147;51.952;6.146;2023-09-30T02:49:08;22.20;;;11.60;;
31537;SDS011;18147;51.952;6.146;2023-09-30T02:51:34;29.55;;;14.55;;
31537;SDS011;18147;51.952;6.146;2023-09-30T02:54:00;33.97;;;14.50;;
31537;SDS011;18147;51.952;6.146;2023-09-30T02:56:25;32.13;;;16.52;;
31537;SDS011;18147;51.952;6.146;2023-09-30T02:58:53;28.85;;;15.30;;
31537;SDS011;18147;51.952;6.146;2023-09-30T03:01:19;23.63;;;13.07;;
31537;SDS011;18147;51.952;6.146;2023-09-30T03:03:46;23.80;;;15.10;;
31537;SDS011;18147;51.952;6.146;2023-09-30T03:06:11;31.65;;;15.63;;
31537;SDS011;18147;51.952;6.146;2023-09-30T03:08:37;38.53;;;17.10;;
31537;SDS011;18147;51.952;6.146;2023-09-30T03:11:03;26.23;;;13.10;;
31537;SDS011;18147;51.952;6.146;2023-09-30T03:13:29;21.67;;;13.93;;
31537;SDS011;18147;51.952;6.146;2023-09-30T03:15:55;30.83;;;14.05;;
31537;SDS011;18147;51.952;6.146;2023-09-30T03:18:22;27.42;;;16.42;;
31537;SDS011;18147;51.952;6.146;2023-09-30T03:20:51;27.23;;;15.10;;
31537;SDS011;18147;51.952;6.146;2023-09-30T03:23:22;28.00;;;15.68;;
31537;SDS011;18147;51.952;6.146;2023-09-30T03:25:55;27.92;;;15.88;;
31537;SDS011;18147;51.952;6.146;2023-09-30T03:28:24;26.38;;;14.48;;
31537;SDS011;18147;51.952;6.146;2023-09-30T03:30:50;24.85;;;13.77;;
31537;SDS011;18147;51.952;6.146;2023-09-30T03:33:15;23.98;;;12.98;;
31537;SDS011;18147;51.952;6.146;2023-09-30T03:35:42;24.70;;;13.48;;
31537;SDS011;18147;51.952;6.146;2023-09-30T03:38:07;28.80;;;15.98;;
31537;SDS011;18147;51.952;6.146;2023-09-30T03:40:35;35.63;;;18.02;;
31537;SDS011;18147;51.952;6.146;2023-09-30T03:43:03;26.75;;;15.50;;
31537;SDS011;18147;51.952;6.146;2023-09-30T03:45:30;27.58;;;15.30;;
31537;SDS011;18147;51.952;6.146;2023-09-30T03:47:58;26.20;;;14.13;;
31537;SDS011;18147;51.952;6.146;2023-09-30T03:50:23;33.42;;;17.33;;
31537;SDS011;18147;51.952;6.146;2023-09-30T03:52:49;28.35;;;15.95;;
31537;SDS011;18147;51.952;6.146;2023-09-30T03:55:18;27.73;;;16.15;;
31537;SDS011;18147;51.952;6.146;2023-09-30T03:57:45;38.58;;;17.40;;
31537;SDS011;18147;51.952;6.146;2023-09-30T04:00:12;34.33;;;17.30;;
31537;SDS011;18147;51.952;6.146;2023-09-30T04:02:41;35.85;;;17.40;;
31537;SDS011;18147;51.952;6.146;2023-09-30T04:05:08;29.88;;;16.13;;
31537;SDS011;18147;51.952;6.146;2023-09-30T04:07:36;28.15;;;16.90;;
31537;SDS011;18147;51.952;6.146;2023-09-30T04:10:02;24.58;;;15.57;;
31537;SDS011;18147;51.952;6.146;2023-09-30T04:12:29;40.60;;;19.95;;
31537;SDS011;18147;51.952;6.146;2023-09-30T04:14:55;32.40;;;15.90;;
31537;SDS011;18147;51.952;6.146;2023-09-30T04:17:20;31.88;;;18.02;;
31537;SDS011;18147;51.952;6.146;2023-09-30T04:19:48;31.35;;;18.33;;
31537;SDS011;18147;51.952;6.146;2023-09-30T04:22:16;35.17;;;18.08;;
31537;SDS011;18147;51.952;6.146;2023-09-30T04:24:42;37.97;;;18.95;;
31537;SDS011;18147;51.952;6.146;2023-09-30T04:27:07;35.92;;;19.25;;
31537;SDS011;18147;51.952;6.146;2023-09-30T04:29:33;30.00;;;17.25;;
31537;SDS011;18147;51.952;6.146;2023-09-30T04:31:59;36.67;;;17.83;;
31537;SDS011;18147;51.952;6.146;2023-09-30T04:34:25;33.63;;;18.92;;
31537;SDS011;18147;51.952;6.146;2023-09-30T04:36:52;35.38;;;18.17;;
31537;SDS011;18147;51.952;6.146;2023-09-30T04:39:18;36.33;;;18.30;;
31537;SDS011;18147;51.952;6.146;2023-09-30T04:41:44;34.55;;;19.02;;
31537;SDS011;18147;51.952;6.146;2023-09-30T04:44:09;35.70;;;19.85;;
31537;SDS011;18147;51.952;6.146;2023-09-30T04:46:35;37.28;;;19.75;;
31537;SDS011;18147;51.952;6.146;2023-09-30T04:49:06;41.40;;;23.10;;
31537;SDS011;18147;51.952;6.146;2023-09-30T04:51:32;45.10;;;24.02;;
31537;SDS011;18147;51.952;6.146;2023-09-30T04:53:58;35.90;;;21.20;;
31537;SDS011;18147;51.952;6.146;2023-09-30T04:56:24;34.58;;;19.95;;
31537;SDS011;18147;51.952;6.146;2023-09-30T04:58:50;38.25;;;19.88;;
31537;SDS011;18147;51.952;6.146;2023-09-30T05:01:16;40.65;;;21.20;;
31537;SDS011;18147;51.952;6.146;2023-09-30T05:03:44;37.83;;;21.65;;
31537;SDS011;18147;51.952;6.146;2023-09-30T05:06:13;34.63;;;20.15;;
31537;SDS011;18147;51.952;6.146;2023-09-30T05:08:40;39.70;;;21.73;;
31537;SDS011;18147;51.952;6.146;2023-09-30T05:11:05;37.08;;;20.52;;
31537;SDS011;18147;51.952;6.146;2023-09-30T05:13:31;37.28;;;19.45;;
31537;SDS011;18147;51.952;6.146;2023-09-30T05:15:58;38.70;;;20.35;;
31537;SDS011;18147;51.952;6.146;2023-09-30T05:18:24;44.58;;;19.75;;
31537;SDS011;18147;51.952;6.146;2023-09-30T05:20:49;38.60;;;22.63;;
31537;SDS011;18147;51.952;6.146;2023-09-30T05:23:15;39.95;;;21.58;;
31537;SDS011;18147;51.952;6.146;2023-09-30T05:25:40;35.15;;;20.50;;
31537;SDS011;18147;51.952;6.146;2023-09-30T05:28:07;39.92;;;22.30;;
31537;SDS011;18147;51.952;6.146;2023-09-30T05:30:34;35.25;;;20.17;;
31537;SDS011;18147;51.952;6.146;2023-09-30T05:33:00;45.80;;;27.02;;
31537;SDS011;18147;51.952;6.146;2023-09-30T05:35:26;50.83;;;26.25;;
31537;SDS011;18147;51.952;6.146;2023-09-30T05:37:52;52.35;;;25.40;;
31537;SDS011;18147;51.952;6.146;2023-09-30T05:40:19;51.17;;;27.27;;
31537;SDS011;18147;51.952;6.146;2023-09-30T05:42:47;48.47;;;26.92;;
31537;SDS011;18147;51.952;6.146;2023-09-30T05:45:13;42.88;;;23.83;;
31537;SDS011;18147;51.952;6.146;2023-09-30T05:47:39;52.25;;;26.92;;
31537;SDS011;18147;51.952;6.146;2023-09-30T05:50:06;51.35;;;27.25;;
31537;SDS011;18147;51.952;6.146;2023-09-30T05:52:33;45.63;;;23.90;;
31537;SDS011;18147;51.952;6.146;2023-09-30T05:54:58;47.20;;;26.85;;
31537;SDS011;18147;51.952;6.146;2023-09-30T05:57:27;46.13;;;26.02;;
31537;SDS011;18147;51.952;6.146;2023-09-30T05:59:53;53.80;;;29.38;;
31537;SDS011;18147;51.952;6.146;2023-09-30T06:02:19;43.50;;;25.40;;
31537;SDS011;18147;51.952;6.146;2023-09-30T06:04:44;54.50;;;28.98;;
31537;SDS011;18147;51.952;6.146;2023-09-30T06:07:11;49.53;;;28.10;;
31537;SDS011;18147;51.952;6.146;2023-09-30T06:09:37;45.05;;;27.65;;
31537;SDS011;18147;51.952;6.146;2023-09-30T06:12:03;48.05;;;27.30;;
31537;SDS011;18147;51.952;6.146;2023-09-30T06:14:31;40.25;;;24.27;;
31537;SDS011;18147;51.952;6.146;2023-09-30T06:16:57;45.38;;;26.83;;
31537;SDS011;18147;51.952;6.146;2023-09-30T06:19:23;45.78;;;25.08;;
31537;SDS011;18147;51.952;6.146;2023-09-30T06:21:51;43.40;;;25.77;;
31537;SDS011;18147;51.952;6.146;2023-09-30T06:24:16;42.67;;;26.38;;
31537;SDS011;18147;51.952;6.146;2023-09-30T06:26:45;51.80;;;29.30;;
31537;SDS011;18147;51.952;6.146;2023-09-30T06:29:10;50.15;;;28.10;;
31537;SDS011;18147;51.952;6.146;2023-09-30T06:31:36;49.72;;;28.10;;
31537;SDS011;18147;51.952;6.146;2023-09-30T06:34:02;47.50;;;28.60;;
31537;SDS011;18147;51.952;6.146;2023-09-30T06:36:29;49.45;;;29.67;;
31537;SDS011;18147;51.952;6.146;2023-09-30T06:38:55;48.88;;;29.02;;
31537;SDS011;18147;51.952;6.146;2023-09-30T06:41:20;55.45;;;28.15;;
31537;SDS011;18147;51.952;6.146;2023-09-30T06:43:46;53.70;;;28.95;;
31537;SDS011;18147;51.952;6.146;2023-09-30T06:46:11;55.53;;;30.92;;
31537;SDS011;18147;51.952;6.146;2023-09-30T06:48:38;48.70;;;29.85;;
31537;SDS011;18147;51.952;6.146;2023-09-30T06:51:07;48.92;;;27.92;;
31537;SDS011;18147;51.952;6.146;2023-09-30T06:53:33;49.08;;;29.90;;
31537;SDS011;18147;51.952;6.146;2023-09-30T06:55:58;58.67;;;31.15;;
31537;SDS011;18147;51.952;6.146;2023-09-30T06:58:24;50.40;;;29.30;;
31537;SDS011;18147;51.952;6.146;2023-09-30T07:00:50;44.88;;;28.98;;
31537;SDS011;18147;51.952;6.146;2023-09-30T07:03:16;40.75;;;28.40;;
31537;SDS011;18147;51.952;6.146;2023-09-30T07:05:44;50.33;;;30.00;;
31537;SDS011;18147;51.952;6.146;2023-09-30T07:08:10;50.38;;;29.83;;
31537;SDS011;18147;51.952;6.146;2023-09-30T07:10:35;41.75;;;25.80;;
31537;SDS011;18147;51.952;6.146;2023-09-30T07:13:02;44.67;;;27.90;;
31537;SDS011;18147;51.952;6.146;2023-09-30T07:15:28;50.47;;;29.17;;
31537;SDS011;18147;51.952;6.146;2023-09-30T07:17:54;45.97;;;27.50;;
31537;SDS011;18147;51.952;6.146;2023-09-30T07:20:19;44.55;;;28.70;;
31537;SDS011;18147;51.952;6.146;2023-09-30T07:22:46;61.50;;;27.77;;
31537;SDS011;18147;51.952;6.146;2023-09-30T07:25:11;56.50;;;27.52;;
31537;SDS011;18147;51.952;6.146;2023-09-30T07:27:39;45.28;;;26.55;;
31537;SDS011;18147;51.952;6.146;2023-09-30T07:30:05;42.42;;;24.15;;
31537;SDS011;18147;51.952;6.146;2023-09-30T07:32:31;39.10;;;24.63;;
31537;SDS011;18147;51.952;6.146;2023-09-30T07:34:57;41.90;;;24.25;;
31537;SDS011;18147;51.952;6.146;2023-09-30T07:37:22;43.47;;;23.73;;
31537;SDS011;18147;51.952;6.146;2023-09-30T07:39:48;42.78;;;21.90;;
31537;SDS011;18147;51.952;6.146;2023-09-30T07:42:14;40.58;;;22.20;;
31537;SDS011;18147;51.952;6.146;2023-09-30T07:44:40;45.75;;;22.35;;
31537;SDS011;18147;51.952;6.146;2023-09-30T07:47:05;42.90;;;21.67;;
31537;SDS011;18147;51.952;6.146;2023-09-30T07:49:31;38.38;;;21.40;;
31537;SDS011;18147;51.952;6.146;2023-09-30T07:51:59;35.03;;;20.58;;
31537;SDS011;18147;51.952;6.146;2023-09-30T07:54:25;36.85;;;20.33;;
31537;SDS011;18147;51.952;6.146;2023-09-30T07:56:51;38.67;;;21.40;;
31537;SDS011;18147;51.952;6.146;2023-09-30T07:59:17;40.40;;;20.77;;
31537;SDS011;18147;51.952;6.146;2023-09-30T08:01:43;35.28;;;19.25;;
31537;SDS011;18147;51.952;6.146;2023-09-30T08:04:08;38.50;;;18.13;;
31537;SDS011;18147;51.952;6.146;2023-09-30T08:06:34;36.53;;;17.75;;
31537;SDS011;18147;51.952;6.146;2023-09-30T08:08:59;41.72;;;18.70;;
31537;SDS011;18147;51.952;6.146;2023-09-30T08:11:25;37.70;;;18.33;;
31537;SDS011;18147;51.952;6.146;2023-09-30T08:13:53;42.65;;;17.88;;
31537;SDS011;18147;51.952;6.146;2023-09-30T08:16:19;37.90;;;17.50;;
31537;SDS011;18147;51.952;6.146;2023-09-30T08:18:45;27.75;;;16.50;;
31537;SDS011;18147;51.952;6.146;2023-09-30T08:21:10;38.53;;;17.65;;
31537;SDS011;18147;51.952;6.146;2023-09-30T08:23:36;31.08;;;16.08;;
31537;SDS011;18147;51.952;6.146;2023-09-30T08:26:04;34.55;;;17.08;;
31537;SDS011;18147;51.952;6.146;2023-09-30T08:28:32;36.53;;;18.35;;
31537;SDS011;18147;51.952;6.146;2023-09-30T08:31:04;36.30;;;16.33;;
31537;SDS011;18147;51.952;6.146;2023-09-30T08:33:30;29.88;;;15.80;;
31537;SDS011;18147;51.952;6.146;2023-09-30T08:36:00;42.05;;;17.50;;
31537;SDS011;18147;51.952;6.146;2023-09-30T08:38:32;36.22;;;16.40;;
31537;SDS011;18147;51.952;6.146;2023-09-30T08:41:01;32.15;;;15.57;;
31537;SDS011;18147;51.952;6.146;2023-09-30T08:43:27;32.10;;;16.40;;
31537;SDS011;18147;51.952;6.146;2023-09-30T08:45:55;45.95;;;18.50;;
31537;SDS011;18147;51.952;6.146;2023-09-30T08:48:21;32.10;;;16.55;;
31537;SDS011;18147;51.952;6.146;2023-09-30T08:50:48;36.00;;;16.58;;
31537;SDS011;18147;51.952;6.146;2023-09-30T08:53:16;33.35;;;15.63;;
31537;SDS011;18147;51.952;6.146;2023-09-30T08:55:42;36.55;;;16.52;;
31537;SDS011;18147;51.952;6.146;2023-09-30T08:58:09;38.30;;;15.35;;
31537;SDS011;18147;51.952;6.146;2023-09-30T09:00:37;30.80;;;15.68;;
31537;SDS011;18147;51.952;6.146;2023-09-30T09:03:03;26.65;;;13.88;;
31537;SDS011;18147;51.952;6.146;2023-09-30T09:05:30;27.67;;;15.52;;
31537;SDS011;18147;51.952;6.146;2023-09-30T09:07:56;32.08;;;15.32;;
31537;SDS011;18147;51.952;6.146;2023-09-30T09:10:21;30.25;;;15.43;;
31537;SDS011;18147;51.952;6.146;2023-09-30T09:12:54;31.77;;;15.80;;
31537;SDS011;18147;51.952;6.146;2023-09-30T09:15:25;34.10;;;15.90;;
31537;SDS011;18147;51.952;6.146;2023-09-30T09:17:51;30.42;;;14.95;;
31537;SDS011;18147;51.952;6.146;2023-09-30T09:20:18;36.35;;;15.52;;
31537;SDS011;18147;51.952;6.146;2023-09-30T09:22:46;32.65;;;15.65;;
31537;SDS011;18147;51.952;6.146;2023-09-30T09:25:18;29.38;;;14.10;;
31537;SDS011;18147;51.952;6.146;2023-09-30T09:27:44;31.35;;;15.75;;
31537;SDS011;18147;51.952;6.146;2023-09-30T09:30:26;30.50;;;14.63;;
31537;SDS011;18147;51.952;6.146;2023-09-30T09:35:23;32.30;;;14.15;;
31537;SDS011;18147;51.952;6.146;2023-09-30T09:37:54;29.23;;;14.23;;
31537;SDS011;18147;51.952;6.146;2023-09-30T09:40:25;31.55;;;14.07;;
31537;SDS011;18147;51.952;6.146;2023-09-30T09:42:55;34.67;;;15.67;;
31537;SDS011;18147;51.952;6.146;2023-09-30T09:45:23;30.27;;;13.82;;
31537;SDS011;18147;51.952;6.146;2023-09-30T09:47:49;27.90;;;13.80;;
31537;SDS011;18147;51.952;6.146;2023-09-30T09:50:17;34.25;;;14.05;;
31537;SDS011;18147;51.952;6.146;2023-09-30T09:52:44;28.70;;;13.93;;
31537;SDS011;18147;51.952;6.146;2023-09-30T09:55:14;25.40;;;13.45;;
31537;SDS011;18147;51.952;6.146;2023-09-30T09:57:45;36.00;;;13.85;;
31537;SDS011;18147;51.952;6.146;2023-09-30T10:00:11;26.70;;;11.35;;
31537;SDS011;18147;51.952;6.146;2023-09-30T10:02:44;25.30;;;12.05;;
31537;SDS011;18147;51.952;6.146;2023-09-30T10:05:11;36.42;;;13.32;;
31537;SDS011;18147;51.952;6.146;2023-09-30T10:07:38;30.40;;;11.73;;
31537;SDS011;18147;51.952;6.146;2023-09-30T10:10:11;27.38;;;10.68;;
31537;SDS011;18147;51.952;6.146;2023-09-30T10:12:40;31.42;;;11.65;;
31537;SDS011;18147;51.952;6.146;2023-09-30T10:20:33;28.90;;;10.60;;
31537;SDS011;18147;51.952;6.146;2023-09-30T10:25:44;28.20;;;10.88;;
31537;SDS011;18147;51.952;6.146;2023-09-30T10:36:32;24.95;;;9.30;;
31537;SDS011;18147;51.952;6.146;2023-09-30T10:38:59;18.45;;;7.93;;
31537;SDS011;18147;51.952;6.146;2023-09-30T10:41:58;22.75;;;8.93;;
31537;SDS011;18147;51.952;6.146;2023-09-30T10:49:29;22.77;;;9.48;;
31537;SDS011;18147;51.952;6.146;2023-09-30T10:51:57;21.90;;;7.50;;
31537;SDS011;18147;51.952;6.146;2023-09-30T10:54:28;19.30;;;6.72;;
31537;SDS011;18147;51.952;6.146;2023-09-30T10:56:54;16.48;;;7.75;;
31537;SDS011;18147;51.952;6.146;2023-09-30T10:59:24;18.30;;;6.60;;
31537;SDS011;18147;51.952;6.146;2023-09-30T11:01:51;17.70;;;6.22;;
31537;SDS011;18147;51.952;6.146;2023-09-30T11:04:18;20.55;;;7.13;;
31537;SDS011;18147;51.952;6.146;2023-09-30T11:06:44;18.77;;;6.38;;
31537;SDS011;18147;51.952;6.146;2023-09-30T11:09:14;17.98;;;6.18;;
31537;SDS011;18147;51.952;6.146;2023-09-30T11:14:27;12.65;;;7.15;;
31537;SDS011;18147;51.952;6.146;2023-09-30T11:16:56;13.95;;;6.05;;
31537;SDS011;18147;51.952;6.146;2023-09-30T11:19:22;15.90;;;5.40;;
31537;SDS011;18147;51.952;6.146;2023-09-30T11:21:50;15.35;;;5.20;;
31537;SDS011;18147;51.952;6.146;2023-09-30T11:24:20;15.93;;;5.32;;
31537;SDS011;18147;51.952;6.146;2023-09-30T11:26:46;17.23;;;5.50;;
31537;SDS011;18147;51.952;6.146;2023-09-30T11:29:12;14.88;;;4.85;;
31537;SDS011;18147;51.952;6.146;2023-09-30T11:31:42;16.60;;;5.65;;
31537;SDS011;18147;51.952;6.146;2023-09-30T11:34:12;14.77;;;5.07;;
31537;SDS011;18147;51.952;6.146;2023-09-30T11:36:39;11.75;;;4.25;;
31537;SDS011;18147;51.952;6.146;2023-09-30T11:39:25;16.63;;;5.22;;
31537;SDS011;18147;51.952;6.146;2023-09-30T11:41:52;13.30;;;4.47;;
31537;SDS011;18147;51.952;6.146;2023-09-30T11:44:18;15.95;;;5.28;;
31537;SDS011;18147;51.952;6.146;2023-09-30T11:49:28;17.65;;;5.50;;
31537;SDS011;18147;51.952;6.146;2023-09-30T11:52:03;14.45;;;5.25;;
31537;SDS011;18147;51.952;6.146;2023-09-30T11:54:40;13.93;;;5.32;;
31537;SDS011;18147;51.952;6.146;2023-09-30T11:57:09;14.10;;;4.93;;
31537;SDS011;18147;51.952;6.146;2023-09-30T11:59:42;15.77;;;4.40;;
31537;SDS011;18147;51.952;6.146;2023-09-30T12:02:08;12.75;;;4.57;;
31537;SDS011;18147;51.952;6.146;2023-09-30T12:04:35;17.63;;;5.05;;
31537;SDS011;18147;51.952;6.146;2023-09-30T12:07:01;12.95;;;4.78;;
31537;SDS011;18147;51.952;6.146;2023-09-30T12:09:26;14.25;;;4.00;;
31537;SDS011;18147;51.952;6.146;2023-09-30T12:11:53;12.70;;;5.10;;
31537;SDS011;18147;51.952;6.146;2023-09-30T12:14:22;16.48;;;5.25;;
31537;SDS011;18147;51.952;6.146;2023-09-30T12:16:47;13.52;;;4.88;;
31537;SDS011;18147;51.952;6.146;2023-09-30T12:19:14;16.05;;;4.90;;
31537;SDS011;18147;51.952;6.146;2023-09-30T12:21:41;15.23;;;4.45;;
31537;SDS011;18147;51.952;6.146;2023-09-30T12:24:08;13.68;;;4.63;;
31537;SDS011;18147;51.952;6.146;2023-09-30T12:26:40;14.13;;;4.68;;
31537;SDS011;18147;51.952;6.146;2023-09-30T12:29:06;13.45;;;4.57;;
31537;SDS011;18147;51.952;6.146;2023-09-30T12:31:34;16.67;;;4.30;;
31537;SDS011;18147;51.952;6.146;2023-09-30T12:33:59;13.68;;;4.47;;
31537;SDS011;18147;51.952;6.146;2023-09-30T12:36:25;14.15;;;4.20;;
31537;SDS011;18147;51.952;6.146;2023-09-30T12:38:50;15.55;;;4.78;;
31537;SDS011;18147;51.952;6.146;2023-09-30T12:41:16;15.55;;;5.18;;
31537;SDS011;18147;51.952;6.146;2023-09-30T12:43:44;13.70;;;4.18;;
31537;SDS011;18147;51.952;6.146;2023-09-30T12:46:09;12.13;;;4.63;;
31537;SDS011;18147;51.952;6.146;2023-09-30T12:48:38;14.20;;;4.28;;
31537;SDS011;18147;51.952;6.146;2023-09-30T12:51:04;13.80;;;4.20;;
31537;SDS011;18147;51.952;6.146;2023-09-30T12:53:31;18.15;;;4.30;;
31537;SDS011;18147;51.952;6.146;2023-09-30T12:55:57;11.35;;;4.57;;
31537;SDS011;18147;51.952;6.146;2023-09-30T12:58:23;14.00;;;4.28;;
31537;SDS011;18147;51.952;6.146;2023-09-30T13:00:49;12.95;;;4.38;;
31537;SDS011;18147;51.952;6.146;2023-09-30T13:03:15;15.55;;;4.32;;
31537;SDS011;18147;51.952;6.146;2023-09-30T13:05:40;15.23;;;4.57;;
31537;SDS011;18147;51.952;6.146;2023-09-30T13:08:06;18.77;;;4.15;;
31537;SDS011;18147;51.952;6.146;2023-09-30T13:10:31;11.77;;;4.20;;
31537;SDS011;18147;51.952;6.146;2023-09-30T13:12:57;15.27;;;4.47;;
31537;SDS011;18147;51.952;6.146;2023-09-30T13:15:22;16.05;;;4.68;;
31537;SDS011;18147;51.952;6.146;2023-09-30T13:17:51;13.55;;;4.25;;
31537;SDS011;18147;51.952;6.146;2023-09-30T13:20:16;15.23;;;4.55;;
31537;SDS011;18147;51.952;6.146;2023-09-30T13:22:42;16.15;;;5.18;;
31537;SDS011;18147;51.952;6.146;2023-09-30T13:25:08;14.98;;;4.70;;
31537;SDS011;18147;51.952;6.146;2023-09-30T13:27:33;11.95;;;4.40;;
31537;SDS011;18147;51.952;6.146;2023-09-30T13:29:59;16.23;;;4.78;;
31537;SDS011;18147;51.952;6.146;2023-09-30T13:32:26;16.35;;;4.82;;
31537;SDS011;18147;51.952;6.146;2023-09-30T13:34:52;12.23;;;4.78;;
31537;SDS011;18147;51.952;6.146;2023-09-30T13:37:17;17.75;;;4.55;;
31537;SDS011;18147;51.952;6.146;2023-09-30T13:39:43;14.57;;;4.53;;
31537;SDS011;18147;51.952;6.146;2023-09-30T13:42:09;12.23;;;4.05;;
31537;SDS011;18147;51.952;6.146;2023-09-30T13:44:34;19.30;;;4.90;;
31537;SDS011;18147;51.952;6.146;2023-09-30T13:47:01;12.98;;;5.13;;
31537;SDS011;18147;51.952;6.146;2023-09-30T13:49:27;17.58;;;4.47;;
31537;SDS011;18147;51.952;6.146;2023-09-30T13:51:52;13.40;;;4.43;;
31537;SDS011;18147;51.952;6.146;2023-09-30T13:54:17;13.48;;;4.50;;
31537;SDS011;18147;51.952;6.146;2023-09-30T13:56:43;13.23;;;5.03;;
31537;SDS011;18147;51.952;6.146;2023-09-30T13:59:09;18.38;;;4.90;;
31537;SDS011;18147;51.952;6.146;2023-09-30T14:01:35;10.48;;;4.32;;
31537;SDS011;18147;51.952;6.146;2023-09-30T14:04:00;15.65;;;4.80;;
31537;SDS011;18147;51.952;6.146;2023-09-30T14:06:27;13.60;;;5.40;;
31537;SDS011;18147;51.952;6.146;2023-09-30T14:08:54;14.02;;;4.97;;
31537;SDS011;18147;51.952;6.146;2023-09-30T14:11:20;12.23;;;5.00;;
31537;SDS011;18147;51.952;6.146;2023-09-30T14:13:45;12.77;;;4.10;;
31537;SDS011;18147;51.952;6.146;2023-09-30T14:16:11;13.07;;;5.15;;
31537;SDS011;18147;51.952;6.146;2023-09-30T14:18:36;14.20;;;3.95;;
31537;SDS011;18147;51.952;6.146;2023-09-30T14:21:04;15.05;;;5.50;;
31537;SDS011;18147;51.952;6.146;2023-09-30T14:23:30;12.57;;;4.60;;
31537;SDS011;18147;51.952;6.146;2023-09-30T14:25:55;13.45;;;5.00;;
31537;SDS011;18147;51.952;6.146;2023-09-30T14:28:21;20.60;;;5.13;;
31537;SDS011;18147;51.952;6.146;2023-09-30T14:30:47;17.00;;;4.93;;
31537;SDS011;18147;51.952;6.146;2023-09-30T14:33:15;14.27;;;5.72;;
31537;SDS011;18147;51.952;6.146;2023-09-30T14:35:41;12.07;;;4.60;;
31537;SDS011;18147;51.952;6.146;2023-09-30T14:38:08;16.45;;;5.35;;
31537;SDS011;18147;51.952;6.146;2023-09-30T14:40:36;14.80;;;5.50;;
31537;SDS011;18147;51.952;6.146;2023-09-30T14:43:04;14.15;;;5.22;;
31537;SDS011;18147;51.952;6.146;2023-09-30T14:45:30;14.13;;;4.18;;
31537;SDS011;18147;51.952;6.146;2023-09-30T14:47:56;15.50;;;5.03;;
31537;SDS011;18147;51.952;6.146;2023-09-30T14:50:22;15.27;;;5.03;;
31537;SDS011;18147;51.952;6.146;2023-09-30T14:52:47;21.50;;;5.60;;